Pagrindinis puslapis
METAR-TAF:

METAR-TAF

Oro uostai :

Mysore, Indija

platuma: 12-13-48N, ilguma: 76-39-21E, Aukštis: 715 m

Dabartinis oras

Ataskaita buvo paskelbta 6 valandos ir 2 minutes, ne 14:30 UTC
Vėjas 8 kt iš Vakarų/Šiaurės Vakarų
Temperatūra 22°C
Drėgmė 100%
Slėgis 1014 hPa
Matomumas: 3000 m
Išsisklaidę debesys ne aukštis 1200 ft
Išsisklaidę debesys ne aukštis 8000 ft
lietus

METAR: VOMY 171430Z 29008KT 3000 -RA SCT012 SCT080 22/22 Q1014

Laikas: 02:02 (20:32 UTC)

Prognozė

Ataskaita buvo paskelbta 12 valandos ir 32 minutes, ne 08:00 UTC
Prognozė galioja nuo 17 metu 09 UTC su 17 metu 18 UTC
Vėjas 10 kt iš Vakarų
Matomumas: 6000 m
Išsisklaidę debesys ne aukštis 1200 ft
Išsisklaidę debesys ne aukštis 8000 ft
Laikinai
nuo 17 metu 09 UTC su 17 metu 15 UTC
Matomumas: 3000 m
Išsisklaidę debesys ne aukštis 800 ft
Išsisklaidę debesys ne aukštis 1200 ft
Su prošvaistėmis ne aukštis 8000 ft
lietus, dulksna

TAF: VOMY 170800Z 1709/1718 27010KT 6000 SCT012 SCT080 TEMPO 1709/1715 3000 RA DZ SCT008 SCT012 BKN080

Orai ataskaitas ir orų prognozės (METAR, TAF).

turimą stotys yra geltonos ir raudonos taškus žemėlapyje.

Perkelti pele per norėdami pamatyti stoties vardą.

Tada spustelėkite, norėdami matyti oro stebėjimo ir prognozės.

Norėdami pakeisti žemėlapį: spustelėkite ant žalios mygtukų su juodo kryžiaus žemyn,; žalią mygtuką su brūkšneliu, jei norite nutolinti; arba žalių rodyklių gretimoms žemėlapius.


METAR-TAF: